sensor_id;sensor_type;location;lat;lon;timestamp;temperature;humidity
23681;DHT22;62915;50.832;4.462;2022-12-18T00:00:32;-1.00;99.90
23681;DHT22;62915;50.832;4.462;2022-12-18T00:02:58;-0.90;99.90
23681;DHT22;62915;50.832;4.462;2022-12-18T00:05:24;-1.00;99.90
23681;DHT22;62915;50.832;4.462;2022-12-18T00:07:49;-0.90;99.90
23681;DHT22;62915;50.832;4.462;2022-12-18T00:10:18;-0.90;99.90
23681;DHT22;62915;50.832;4.462;2022-12-18T00:12:43;-0.90;99.90
23681;DHT22;62915;50.832;4.462;2022-12-18T00:15:09;-0.90;99.90
23681;DHT22;62915;50.832;4.462;2022-12-18T00:17:35;-0.90;99.90
23681;DHT22;62915;50.832;4.462;2022-12-18T00:20:00;-1.00;99.90
23681;DHT22;62915;50.832;4.462;2022-12-18T00:22:26;-0.90;99.90
23681;DHT22;62915;50.832;4.462;2022-12-18T00:24:54;-0.90;99.90
23681;DHT22;62915;50.832;4.462;2022-12-18T00:27:20;-0.80;99.90
23681;DHT22;62915;50.832;4.462;2022-12-18T00:29:45;-0.80;99.90
23681;DHT22;62915;50.832;4.462;2022-12-18T00:32:11;-0.80;99.90
23681;DHT22;62915;50.832;4.462;2022-12-18T00:34:36;-0.70;99.90
23681;DHT22;62915;50.832;4.462;2022-12-18T00:37:03;-0.60;99.90
23681;DHT22;62915;50.832;4.462;2022-12-18T00:39:29;-0.60;99.90
23681;DHT22;62915;50.832;4.462;2022-12-18T00:41:54;-0.50;99.90
23681;DHT22;62915;50.832;4.462;2022-12-18T00:44:38;-0.50;99.90
23681;DHT22;62915;50.832;4.462;2022-12-18T00:47:04;-0.60;99.90
23681;DHT22;62915;50.832;4.462;2022-12-18T00:49:30;-0.50;99.90
23681;DHT22;62915;50.832;4.462;2022-12-18T00:51:55;-0.40;99.90
23681;DHT22;62915;50.832;4.462;2022-12-18T00:54:21;-0.50;99.90
23681;DHT22;62915;50.832;4.462;2022-12-18T00:56:47;-0.50;99.90
23681;DHT22;62915;50.832;4.462;2022-12-18T00:59:13;-0.50;99.90
23681;DHT22;62915;50.832;4.462;2022-12-18T01:01:38;-0.50;99.90
23681;DHT22;62915;50.832;4.462;2022-12-18T01:04:04;-0.40;99.90
23681;DHT22;62915;50.832;4.462;2022-12-18T01:06:30;-0.30;99.90
23681;DHT22;62915;50.832;4.462;2022-12-18T01:08:55;-0.30;99.90
23681;DHT22;62915;50.832;4.462;2022-12-18T01:11:21;-0.40;99.90
23681;DHT22;62915;50.832;4.462;2022-12-18T01:13:47;-0.50;99.90
23681;DHT22;62915;50.832;4.462;2022-12-18T01:16:14;-0.60;99.90
23681;DHT22;62915;50.832;4.462;2022-12-18T01:18:41;-0.60;99.90
23681;DHT22;62915;50.832;4.462;2022-12-18T01:21:12;-0.60;99.90
23681;DHT22;62915;50.832;4.462;2022-12-18T01:23:39;-0.60;99.90
23681;DHT22;62915;50.832;4.462;2022-12-18T01:26:10;-0.60;99.90
23681;DHT22;62915;50.832;4.462;2022-12-18T01:28:36;-0.60;99.90
23681;DHT22;62915;50.832;4.462;2022-12-18T01:31:13;-0.60;99.90
23681;DHT22;62915;50.832;4.462;2022-12-18T01:33:39;-0.50;99.90
23681;DHT22;62915;50.832;4.462;2022-12-18T01:36:05;-0.50;99.90
23681;DHT22;62915;50.832;4.462;2022-12-18T01:38:30;-0.40;99.90
23681;DHT22;62915;50.832;4.462;2022-12-18T01:41:00;-0.40;99.90
23681;DHT22;62915;50.832;4.462;2022-12-18T01:46:08;-0.50;99.90
23681;DHT22;62915;50.832;4.462;2022-12-18T01:48:34;-0.50;99.90
23681;DHT22;62915;50.832;4.462;2022-12-18T01:51:00;-0.50;99.90
23681;DHT22;62915;50.832;4.462;2022-12-18T01:53:26;-0.70;99.90
23681;DHT22;62915;50.832;4.462;2022-12-18T01:55:56;-0.70;99.90
23681;DHT22;62915;50.832;4.462;2022-12-18T02:01:21;-0.70;99.90
23681;DHT22;62915;50.832;4.462;2022-12-18T02:03:48;-0.70;99.90
23681;DHT22;62915;50.832;4.462;2022-12-18T02:09:05;-0.70;99.90
23681;DHT22;62915;50.832;4.462;2022-12-18T02:11:41;-0.80;99.90
23681;DHT22;62915;50.832;4.462;2022-12-18T02:17:16;-0.60;99.90
23681;DHT22;62915;50.832;4.462;2022-12-18T02:20:17;-0.60;99.90
23681;DHT22;62915;50.832;4.462;2022-12-18T02:23:01;-0.80;99.90
23681;DHT22;62915;50.832;4.462;2022-12-18T02:27:56;-0.90;99.90
23681;DHT22;62915;50.832;4.462;2022-12-18T02:30:26;-0.90;99.90
23681;DHT22;62915;50.832;4.462;2022-12-18T02:32:53;-1.00;99.90
23681;DHT22;62915;50.832;4.462;2022-12-18T02:35:23;-1.00;99.90
23681;DHT22;62915;50.832;4.462;2022-12-18T02:37:53;-1.20;99.90
23681;DHT22;62915;50.832;4.462;2022-12-18T02:40:28;-1.10;99.90
23681;DHT22;62915;50.832;4.462;2022-12-18T02:42:54;-1.20;99.90
23681;DHT22;62915;50.832;4.462;2022-12-18T02:45:20;-1.20;99.90
23681;DHT22;62915;50.832;4.462;2022-12-18T02:47:48;-1.30;99.90
23681;DHT22;62915;50.832;4.462;2022-12-18T02:50:30;-1.40;99.90
23681;DHT22;62915;50.832;4.462;2022-12-18T02:53:30;-1.40;99.90
23681;DHT22;62915;50.832;4.462;2022-12-18T02:59:04;-1.40;99.90
23681;DHT22;62915;50.832;4.462;2022-12-18T03:07:08;-1.50;99.90
23681;DHT22;62915;50.832;4.462;2022-12-18T03:09:42;-1.40;99.90
23681;DHT22;62915;50.832;4.462;2022-12-18T03:12:29;-1.60;99.90
23681;DHT22;62915;50.832;4.462;2022-12-18T03:17:26;-1.70;99.90
23681;DHT22;62915;50.832;4.462;2022-12-18T03:19:54;-1.70;99.90
23681;DHT22;62915;50.832;4.462;2022-12-18T03:22:23;-1.70;99.90
23681;DHT22;62915;50.832;4.462;2022-12-18T03:24:51;-1.70;99.90
23681;DHT22;62915;50.832;4.462;2022-12-18T03:27:19;-1.60;99.90
23681;DHT22;62915;50.832;4.462;2022-12-18T03:29:53;-1.60;99.90
23681;DHT22;62915;50.832;4.462;2022-12-18T03:33:16;-1.50;99.90
23681;DHT22;62915;50.832;4.462;2022-12-18T03:35:39;-1.40;99.90
23681;DHT22;62915;50.832;4.462;2022-12-18T03:38:05;-1.40;99.90
23681;DHT22;62915;50.832;4.462;2022-12-18T03:46:30;-1.40;99.90
23681;DHT22;62915;50.832;4.462;2022-12-18T03:51:57;-1.30;99.90
23681;DHT22;62915;50.832;4.462;2022-12-18T03:54:25;-1.30;99.90
23681;DHT22;62915;50.832;4.462;2022-12-18T03:56:59;-1.40;99.90
23681;DHT22;62915;50.832;4.462;2022-12-18T03:59:27;-1.30;99.90
23681;DHT22;62915;50.832;4.462;2022-12-18T04:01:56;-1.40;99.90
23681;DHT22;62915;50.832;4.462;2022-12-18T04:04:24;-1.40;99.90
23681;DHT22;62915;50.832;4.462;2022-12-18T04:06:51;-1.40;99.90
23681;DHT22;62915;50.832;4.462;2022-12-18T04:09:18;-1.40;99.90
23681;DHT22;62915;50.832;4.462;2022-12-18T04:11:46;-1.30;99.90
23681;DHT22;62915;50.832;4.462;2022-12-18T04:14:12;-1.40;99.90
23681;DHT22;62915;50.832;4.462;2022-12-18T04:16:37;-1.50;99.90
23681;DHT22;62915;50.832;4.462;2022-12-18T04:19:12;-1.50;99.90
23681;DHT22;62915;50.832;4.462;2022-12-18T04:21:38;-1.40;99.90
23681;DHT22;62915;50.832;4.462;2022-12-18T04:24:05;-1.40;99.90
23681;DHT22;62915;50.832;4.462;2022-12-18T04:26:30;-1.50;99.90
23681;DHT22;62915;50.832;4.462;2022-12-18T04:29:06;-1.40;99.90
23681;DHT22;62915;50.832;4.462;2022-12-18T04:31:32;-1.40;99.90
23681;DHT22;62915;50.832;4.462;2022-12-18T04:33:57;-1.50;99.90
23681;DHT22;62915;50.832;4.462;2022-12-18T04:36:23;-1.60;99.90
23681;DHT22;62915;50.832;4.462;2022-12-18T04:38:49;-1.60;99.90
23681;DHT22;62915;50.832;4.462;2022-12-18T04:41:16;-1.60;99.90
23681;DHT22;62915;50.832;4.462;2022-12-18T04:43:42;-1.50;99.90
23681;DHT22;62915;50.832;4.462;2022-12-18T04:46:08;-1.60;99.90
23681;DHT22;62915;50.832;4.462;2022-12-18T04:48:34;-1.60;99.90
23681;DHT22;62915;50.832;4.462;2022-12-18T04:51:00;-1.50;99.90
23681;DHT22;62915;50.832;4.462;2022-12-18T04:53:26;-1.60;99.90
23681;DHT22;62915;50.832;4.462;2022-12-18T04:56:03;-1.70;99.90
23681;DHT22;62915;50.832;4.462;2022-12-18T04:58:28;-1.60;99.90
23681;DHT22;62915;50.832;4.462;2022-12-18T05:00:54;-1.70;99.90
23681;DHT22;62915;50.832;4.462;2022-12-18T05:03:20;-1.80;99.90
23681;DHT22;62915;50.832;4.462;2022-12-18T05:05:49;-1.80;99.90
23681;DHT22;62915;50.832;4.462;2022-12-18T05:08:18;-1.90;99.90
23681;DHT22;62915;50.832;4.462;2022-12-18T05:10:44;-2.00;99.90
23681;DHT22;62915;50.832;4.462;2022-12-18T05:13:12;-2.00;99.90
23681;DHT22;62915;50.832;4.462;2022-12-18T05:15:38;-1.90;99.90
23681;DHT22;62915;50.832;4.462;2022-12-18T05:18:04;-1.80;99.90
23681;DHT22;62915;50.832;4.462;2022-12-18T05:20:30;-1.80;99.90
23681;DHT22;62915;50.832;4.462;2022-12-18T05:22:56;-1.70;99.90
23681;DHT22;62915;50.832;4.462;2022-12-18T05:25:22;-1.70;99.90
23681;DHT22;62915;50.832;4.462;2022-12-18T05:27:48;-1.70;99.90
23681;DHT22;62915;50.832;4.462;2022-12-18T05:30:15;-1.70;99.90
23681;DHT22;62915;50.832;4.462;2022-12-18T05:32:42;-1.80;99.90
23681;DHT22;62915;50.832;4.462;2022-12-18T05:35:09;-1.70;99.90
23681;DHT22;62915;50.832;4.462;2022-12-18T05:37:35;-1.70;99.90
23681;DHT22;62915;50.832;4.462;2022-12-18T05:40:03;-1.80;99.90
23681;DHT22;62915;50.832;4.462;2022-12-18T05:42:28;-1.80;99.90
23681;DHT22;62915;50.832;4.462;2022-12-18T05:44:54;-1.70;99.90
23681;DHT22;62915;50.832;4.462;2022-12-18T05:47:22;-1.60;99.90
23681;DHT22;62915;50.832;4.462;2022-12-18T05:49:48;-1.60;99.90
23681;DHT22;62915;50.832;4.462;2022-12-18T05:52:16;-1.60;99.90
23681;DHT22;62915;50.832;4.462;2022-12-18T05:54:42;-1.70;99.90
23681;DHT22;62915;50.832;4.462;2022-12-18T05:57:13;-1.70;99.90
23681;DHT22;62915;50.832;4.462;2022-12-18T05:59:41;-1.70;99.90
23681;DHT22;62915;50.832;4.462;2022-12-18T06:02:09;-1.60;99.90
23681;DHT22;62915;50.832;4.462;2022-12-18T06:04:34;-1.60;99.90
23681;DHT22;62915;50.832;4.462;2022-12-18T06:07:02;-1.60;99.90
23681;DHT22;62915;50.832;4.462;2022-12-18T06:09:36;-1.60;99.90
23681;DHT22;62915;50.832;4.462;2022-12-18T06:12:01;-1.50;99.90
23681;DHT22;62915;50.832;4.462;2022-12-18T06:14:29;-1.40;99.90
23681;DHT22;62915;50.832;4.462;2022-12-18T06:16:55;-1.40;99.90
23681;DHT22;62915;50.832;4.462;2022-12-18T06:19:20;-1.40;99.90
23681;DHT22;62915;50.832;4.462;2022-12-18T06:21:46;-1.40;99.90
23681;DHT22;62915;50.832;4.462;2022-12-18T06:24:14;-1.30;99.90
23681;DHT22;62915;50.832;4.462;2022-12-18T06:26:42;-1.30;99.90
23681;DHT22;62915;50.832;4.462;2022-12-18T06:29:08;-1.30;99.90
23681;DHT22;62915;50.832;4.462;2022-12-18T06:31:33;-1.20;99.90
23681;DHT22;62915;50.832;4.462;2022-12-18T06:34:01;-1.30;99.90
23681;DHT22;62915;50.832;4.462;2022-12-18T06:36:27;-1.20;99.90
23681;DHT22;62915;50.832;4.462;2022-12-18T06:38:53;-1.40;99.90
23681;DHT22;62915;50.832;4.462;2022-12-18T06:41:20;-1.40;99.90
23681;DHT22;62915;50.832;4.462;2022-12-18T06:43:48;-1.50;99.90
23681;DHT22;62915;50.832;4.462;2022-12-18T06:46:14;-1.60;99.90
23681;DHT22;62915;50.832;4.462;2022-12-18T06:48:40;-1.80;99.90
23681;DHT22;62915;50.832;4.462;2022-12-18T06:51:06;-1.80;99.90
23681;DHT22;62915;50.832;4.462;2022-12-18T06:53:32;-1.80;99.90
23681;DHT22;62915;50.832;4.462;2022-12-18T06:56:06;-1.70;99.90
23681;DHT22;62915;50.832;4.462;2022-12-18T06:58:32;-1.80;99.90
23681;DHT22;62915;50.832;4.462;2022-12-18T07:01:02;-1.80;99.90
23681;DHT22;62915;50.832;4.462;2022-12-18T07:03:29;-1.80;99.90
23681;DHT22;62915;50.832;4.462;2022-12-18T07:05:54;-1.80;99.90
23681;DHT22;62915;50.832;4.462;2022-12-18T07:08:22;-1.70;99.90
23681;DHT22;62915;50.832;4.462;2022-12-18T07:10:47;-1.60;99.90
23681;DHT22;62915;50.832;4.462;2022-12-18T07:13:15;-1.50;99.90
23681;DHT22;62915;50.832;4.462;2022-12-18T07:15:41;-1.50;99.90
23681;DHT22;62915;50.832;4.462;2022-12-18T07:18:06;-1.40;99.90
23681;DHT22;62915;50.832;4.462;2022-12-18T07:20:33;-1.40;99.90
23681;DHT22;62915;50.832;4.462;2022-12-18T07:22:58;-1.40;99.90
23681;DHT22;62915;50.832;4.462;2022-12-18T07:25:26;-1.40;99.90
23681;DHT22;62915;50.832;4.462;2022-12-18T07:27:52;-1.30;99.90
23681;DHT22;62915;50.832;4.462;2022-12-18T07:30:20;-1.20;99.90
23681;DHT22;62915;50.832;4.462;2022-12-18T07:32:46;-1.20;99.90
23681;DHT22;62915;50.832;4.462;2022-12-18T07:35:12;-1.20;99.90
23681;DHT22;62915;50.832;4.462;2022-12-18T07:37:37;-1.40;99.90
23681;DHT22;62915;50.832;4.462;2022-12-18T07:40:03;-1.40;99.90
23681;DHT22;62915;50.832;4.462;2022-12-18T07:42:29;-1.40;99.90
23681;DHT22;62915;50.832;4.462;2022-12-18T07:45:01;-1.30;99.90
23681;DHT22;62915;50.832;4.462;2022-12-18T07:47:28;-1.40;99.90
23681;DHT22;62915;50.832;4.462;2022-12-18T07:49:57;-1.40;99.90
23681;DHT22;62915;50.832;4.462;2022-12-18T07:52:23;-1.40;99.90
23681;DHT22;62915;50.832;4.462;2022-12-18T07:54:49;-1.40;99.90
23681;DHT22;62915;50.832;4.462;2022-12-18T07:57:16;-1.40;99.90
23681;DHT22;62915;50.832;4.462;2022-12-18T07:59:42;-1.30;99.90
23681;DHT22;62915;50.832;4.462;2022-12-18T08:02:08;-1.20;99.90
23681;DHT22;62915;50.832;4.462;2022-12-18T08:04:35;-1.20;99.90
23681;DHT22;62915;50.832;4.462;2022-12-18T08:07:00;-1.20;99.90
23681;DHT22;62915;50.832;4.462;2022-12-18T08:09:26;-1.30;99.90
23681;DHT22;62915;50.832;4.462;2022-12-18T08:11:52;-1.30;99.90
23681;DHT22;62915;50.832;4.462;2022-12-18T08:14:17;-1.10;99.90
23681;DHT22;62915;50.832;4.462;2022-12-18T08:16:43;-1.10;99.90
23681;DHT22;62915;50.832;4.462;2022-12-18T08:19:09;-1.10;99.90
23681;DHT22;62915;50.832;4.462;2022-12-18T08:21:34;-1.00;99.90
23681;DHT22;62915;50.832;4.462;2022-12-18T08:24:03;-0.90;99.90
23681;DHT22;62915;50.832;4.462;2022-12-18T08:26:31;-0.90;99.90
23681;DHT22;62915;50.832;4.462;2022-12-18T08:28:58;-0.90;99.90
23681;DHT22;62915;50.832;4.462;2022-12-18T08:31:26;-1.00;99.90
23681;DHT22;62915;50.832;4.462;2022-12-18T08:33:53;-1.00;99.90
23681;DHT22;62915;50.832;4.462;2022-12-18T08:36:19;-0.90;99.90
23681;DHT22;62915;50.832;4.462;2022-12-18T08:38:50;-0.80;99.90
23681;DHT22;62915;50.832;4.462;2022-12-18T08:41:19;-0.70;99.90
23681;DHT22;62915;50.832;4.462;2022-12-18T08:43:45;-0.70;99.90
23681;DHT22;62915;50.832;4.462;2022-12-18T08:46:38;-0.60;99.90
23681;DHT22;62915;50.832;4.462;2022-12-18T08:49:05;-0.60;99.90
23681;DHT22;62915;50.832;4.462;2022-12-18T08:51:31;-0.50;99.90
23681;DHT22;62915;50.832;4.462;2022-12-18T08:53:56;-0.60;99.90
23681;DHT22;62915;50.832;4.462;2022-12-18T08:56:22;-0.60;99.90
23681;DHT22;62915;50.832;4.462;2022-12-18T08:58:54;-0.70;99.90
23681;DHT22;62915;50.832;4.462;2022-12-18T09:01:20;-0.70;99.90
23681;DHT22;62915;50.832;4.462;2022-12-18T09:03:49;-0.60;99.90
23681;DHT22;62915;50.832;4.462;2022-12-18T09:06:16;-0.40;99.90
23681;DHT22;62915;50.832;4.462;2022-12-18T09:08:43;-0.30;99.90
23681;DHT22;62915;50.832;4.462;2022-12-18T09:11:23;-0.30;99.90
23681;DHT22;62915;50.832;4.462;2022-12-18T09:13:49;-0.30;99.90
23681;DHT22;62915;50.832;4.462;2022-12-18T09:16:16;-0.20;99.90
23681;DHT22;62915;50.832;4.462;2022-12-18T09:18:41;-0.10;99.90
23681;DHT22;62915;50.832;4.462;2022-12-18T09:21:15;-0.10;99.90
23681;DHT22;62915;50.832;4.462;2022-12-18T09:23:41;-0.20;99.90
23681;DHT22;62915;50.832;4.462;2022-12-18T09:26:07;-0.10;99.90
23681;DHT22;62915;50.832;4.462;2022-12-18T09:28:33;-0.10;99.90
23681;DHT22;62915;50.832;4.462;2022-12-18T09:31:03;0.00;99.90
23681;DHT22;62915;50.832;4.462;2022-12-18T09:33:29;-0.10;99.90
23681;DHT22;62915;50.832;4.462;2022-12-18T09:35:54;0.00;99.90
23681;DHT22;62915;50.832;4.462;2022-12-18T09:38:20;-0.10;99.90
23681;DHT22;62915;50.832;4.462;2022-12-18T09:40:51;0.10;99.90
23681;DHT22;62915;50.832;4.462;2022-12-18T09:46:32;0.30;99.90
23681;DHT22;62915;50.832;4.462;2022-12-18T09:49:02;0.20;99.90
23681;DHT22;62915;50.832;4.462;2022-12-18T09:51:47;0.20;99.90
23681;DHT22;62915;50.832;4.462;2022-12-18T09:54:21;0.20;99.90
23681;DHT22;62915;50.832;4.462;2022-12-18T09:56:48;0.30;99.90
23681;DHT22;62915;50.832;4.462;2022-12-18T09:59:37;0.30;99.90
23681;DHT22;62915;50.832;4.462;2022-12-18T10:02:20;0.20;99.90
23681;DHT22;62915;50.832;4.462;2022-12-18T10:05:16;0.30;99.90
23681;DHT22;62915;50.832;4.462;2022-12-18T10:13:52;0.60;99.90
23681;DHT22;62915;50.832;4.462;2022-12-18T10:16:09;0.50;99.90
23681;DHT22;62915;50.832;4.462;2022-12-18T10:18:42;0.60;99.90
23681;DHT22;62915;50.832;4.462;2022-12-18T10:21:17;0.60;99.90
23681;DHT22;62915;50.832;4.462;2022-12-18T10:26:26;0.70;99.90
23681;DHT22;62915;50.832;4.462;2022-12-18T10:28:53;0.80;99.90
23681;DHT22;62915;50.832;4.462;2022-12-18T10:31:22;0.70;99.90
23681;DHT22;62915;50.832;4.462;2022-12-18T10:33:48;0.70;99.90
23681;DHT22;62915;50.832;4.462;2022-12-18T10:36:14;0.70;99.90
23681;DHT22;62915;50.832;4.462;2022-12-18T10:38:40;0.70;99.90
23681;DHT22;62915;50.832;4.462;2022-12-18T10:46:36;0.70;99.90
23681;DHT22;62915;50.832;4.462;2022-12-18T10:49:02;0.80;99.90
23681;DHT22;62915;50.832;4.462;2022-12-18T10:51:31;0.90;99.90
23681;DHT22;62915;50.832;4.462;2022-12-18T10:54:18;1.00;99.90
23681;DHT22;62915;50.832;4.462;2022-12-18T10:56:45;1.10;99.90
23681;DHT22;62915;50.832;4.462;2022-12-18T10:59:16;1.20;99.90
23681;DHT22;62915;50.832;4.462;2022-12-18T11:01:56;1.10;99.90
23681;DHT22;62915;50.832;4.462;2022-12-18T11:04:32;1.00;99.90
23681;DHT22;62915;50.832;4.462;2022-12-18T11:07:08;1.10;99.90
23681;DHT22;62915;50.832;4.462;2022-12-18T11:09:34;1.10;99.90
23681;DHT22;62915;50.832;4.462;2022-12-18T11:12:27;1.20;99.90
23681;DHT22;62915;50.832;4.462;2022-12-18T11:14:53;1.20;99.90
23681;DHT22;62915;50.832;4.462;2022-12-18T11:17:28;1.20;99.90
23681;DHT22;62915;50.832;4.462;2022-12-18T11:19:58;1.20;99.90
23681;DHT22;62915;50.832;4.462;2022-12-18T11:22:35;1.40;99.90
23681;DHT22;62915;50.832;4.462;2022-12-18T11:27:37;1.40;99.90
23681;DHT22;62915;50.832;4.462;2022-12-18T11:30:25;1.40;99.90
23681;DHT22;62915;50.832;4.462;2022-12-18T11:33:03;1.50;99.90
23681;DHT22;62915;50.832;4.462;2022-12-18T11:35:42;1.60;99.90
23681;DHT22;62915;50.832;4.462;2022-12-18T11:43:33;1.50;99.90
23681;DHT22;62915;50.832;4.462;2022-12-18T11:46:05;1.40;99.90
23681;DHT22;62915;50.832;4.462;2022-12-18T11:49:01;1.60;99.90
23681;DHT22;62915;50.832;4.462;2022-12-18T11:51:41;1.60;99.90
23681;DHT22;62915;50.832;4.462;2022-12-18T11:54:15;1.70;99.90
23681;DHT22;62915;50.832;4.462;2022-12-18T11:56:53;1.60;99.90
23681;DHT22;62915;50.832;4.462;2022-12-18T12:13:15;1.70;99.90
23681;DHT22;62915;50.832;4.462;2022-12-18T12:16:08;1.70;99.90
23681;DHT22;62915;50.832;4.462;2022-12-18T12:18:45;1.90;99.90
23681;DHT22;62915;50.832;4.462;2022-12-18T12:21:41;1.90;99.90
23681;DHT22;62915;50.832;4.462;2022-12-18T12:39:54;2.00;99.90
23681;DHT22;62915;50.832;4.462;2022-12-18T12:42:47;1.90;99.90
23681;DHT22;62915;50.832;4.462;2022-12-18T12:46:10;2.00;99.90
23681;DHT22;62915;50.832;4.462;2022-12-18T12:48:46;2.10;99.90
23681;DHT22;62915;50.832;4.462;2022-12-18T12:51:37;2.00;99.90
23681;DHT22;62915;50.832;4.462;2022-12-18T12:54:08;2.00;99.90
23681;DHT22;62915;50.832;4.462;2022-12-18T13:05:01;2.30;99.90
23681;DHT22;62915;50.832;4.462;2022-12-18T13:07:40;2.30;99.90
23681;DHT22;62915;50.832;4.462;2022-12-18T13:13:03;2.20;99.90
23681;DHT22;62915;50.832;4.462;2022-12-18T13:15:39;2.20;99.90
23681;DHT22;62915;50.832;4.462;2022-12-18T13:26:33;2.20;99.90
23681;DHT22;62915;50.832;4.462;2022-12-18T13:34:17;2.20;99.90
23681;DHT22;62915;50.832;4.462;2022-12-18T13:36:43;2.10;99.90
23681;DHT22;62915;50.832;4.462;2022-12-18T13:41:45;2.20;99.90
23681;DHT22;62915;50.832;4.462;2022-12-18T13:44:28;2.20;99.90
23681;DHT22;62915;50.832;4.462;2022-12-18T13:46:56;2.20;99.90
23681;DHT22;62915;50.832;4.462;2022-12-18T13:51:59;2.20;99.90
23681;DHT22;62915;50.832;4.462;2022-12-18T13:54:37;2.00;99.90
23681;DHT22;62915;50.832;4.462;2022-12-18T13:57:05;2.10;99.90
23681;DHT22;62915;50.832;4.462;2022-12-18T13:59:48;2.20;99.90
23681;DHT22;62915;50.832;4.462;2022-12-18T14:02:16;2.10;99.90
23681;DHT22;62915;50.832;4.462;2022-12-18T14:04:45;2.10;99.90
23681;DHT22;62915;50.832;4.462;2022-12-18T14:07:14;2.00;99.90
23681;DHT22;62915;50.832;4.462;2022-12-18T14:09:46;2.10;99.90
23681;DHT22;62915;50.832;4.462;2022-12-18T14:12:20;2.20;99.90
23681;DHT22;62915;50.832;4.462;2022-12-18T14:18:20;2.20;99.90
23681;DHT22;62915;50.832;4.462;2022-12-18T14:20:49;2.20;99.90
23681;DHT22;62915;50.832;4.462;2022-12-18T14:23:44;2.00;99.90
23681;DHT22;62915;50.832;4.462;2022-12-18T14:28:48;2.00;99.90
23681;DHT22;62915;50.832;4.462;2022-12-18T14:31:21;2.20;99.90
23681;DHT22;62915;50.832;4.462;2022-12-18T14:33:48;2.10;99.90
23681;DHT22;62915;50.832;4.462;2022-12-18T14:36:32;2.00;99.90
23681;DHT22;62915;50.832;4.462;2022-12-18T14:38:58;2.00;99.90
23681;DHT22;62915;50.832;4.462;2022-12-18T14:41:27;2.10;99.90
23681;DHT22;62915;50.832;4.462;2022-12-18T14:43:54;2.10;99.90
23681;DHT22;62915;50.832;4.462;2022-12-18T14:46:35;2.10;99.90
23681;DHT22;62915;50.832;4.462;2022-12-18T14:51:56;2.10;99.90
23681;DHT22;62915;50.832;4.462;2022-12-18T14:54:23;2.10;99.90
23681;DHT22;62915;50.832;4.462;2022-12-18T14:56:55;2.20;99.90
23681;DHT22;62915;50.832;4.462;2022-12-18T14:59:24;2.30;99.90
23681;DHT22;62915;50.832;4.462;2022-12-18T15:04:35;2.40;99.90
23681;DHT22;62915;50.832;4.462;2022-12-18T15:09:31;2.30;99.90
23681;DHT22;62915;50.832;4.462;2022-12-18T15:12:03;2.30;99.90
23681;DHT22;62915;50.832;4.462;2022-12-18T15:16:56;2.10;99.90
23681;DHT22;62915;50.832;4.462;2022-12-18T15:21:58;2.10;99.90
23681;DHT22;62915;50.832;4.462;2022-12-18T15:24:27;2.10;99.90
23681;DHT22;62915;50.832;4.462;2022-12-18T15:26:54;1.90;99.90
23681;DHT22;62915;50.832;4.462;2022-12-18T15:29:21;2.10;99.90
23681;DHT22;62915;50.832;4.462;2022-12-18T15:32:05;2.20;99.90
23681;DHT22;62915;50.832;4.462;2022-12-18T15:34:32;2.20;99.90
23681;DHT22;62915;50.832;4.462;2022-12-18T15:36:59;1.90;99.90
23681;DHT22;62915;50.832;4.462;2022-12-18T15:39:25;1.90;99.90
23681;DHT22;62915;50.832;4.462;2022-12-18T15:41:51;2.00;99.90
23681;DHT22;62915;50.832;4.462;2022-12-18T15:44:38;2.00;99.90
23681;DHT22;62915;50.832;4.462;2022-12-18T15:47:09;2.00;99.90
23681;DHT22;62915;50.832;4.462;2022-12-18T15:49:35;2.10;99.90
23681;DHT22;62915;50.832;4.462;2022-12-18T15:52:02;2.00;99.90
23681;DHT22;62915;50.832;4.462;2022-12-18T15:54:28;2.00;99.90
23681;DHT22;62915;50.832;4.462;2022-12-18T15:57:12;2.10;99.90
23681;DHT22;62915;50.832;4.462;2022-12-18T15:59:59;2.10;99.90
23681;DHT22;62915;50.832;4.462;2022-12-18T16:02:25;2.20;99.90
23681;DHT22;62915;50.832;4.462;2022-12-18T16:04:51;2.20;99.90
23681;DHT22;62915;50.832;4.462;2022-12-18T16:07:17;2.20;99.90
23681;DHT22;62915;50.832;4.462;2022-12-18T16:09:43;2.20;99.90
23681;DHT22;62915;50.832;4.462;2022-12-18T16:12:28;2.30;99.90
23681;DHT22;62915;50.832;4.462;2022-12-18T16:14:53;2.40;99.90
23681;DHT22;62915;50.832;4.462;2022-12-18T16:17:19;2.30;99.90
23681;DHT22;62915;50.832;4.462;2022-12-18T16:19:45;2.20;99.90
23681;DHT22;62915;50.832;4.462;2022-12-18T16:22:22;2.10;99.90
23681;DHT22;62915;50.832;4.462;2022-12-18T16:24:50;2.20;99.90
23681;DHT22;62915;50.832;4.462;2022-12-18T16:27:16;2.20;99.90
23681;DHT22;62915;50.832;4.462;2022-12-18T16:29:42;2.20;99.90
23681;DHT22;62915;50.832;4.462;2022-12-18T16:32:11;2.30;99.90
23681;DHT22;62915;50.832;4.462;2022-12-18T16:34:37;2.30;99.90
23681;DHT22;62915;50.832;4.462;2022-12-18T16:37:05;2.30;99.90
23681;DHT22;62915;50.832;4.462;2022-12-18T16:39:31;2.20;99.90
23681;DHT22;62915;50.832;4.462;2022-12-18T16:42:06;2.20;99.90
23681;DHT22;62915;50.832;4.462;2022-12-18T16:44:33;2.20;99.90
23681;DHT22;62915;50.832;4.462;2022-12-18T16:46:59;2.20;99.90
23681;DHT22;62915;50.832;4.462;2022-12-18T16:49:27;2.30;99.90
23681;DHT22;62915;50.832;4.462;2022-12-18T16:51:53;2.30;99.90
23681;DHT22;62915;50.832;4.462;2022-12-18T16:54:19;2.30;99.90
23681;DHT22;62915;50.832;4.462;2022-12-18T16:56:45;2.30;99.90
23681;DHT22;62915;50.832;4.462;2022-12-18T16:59:14;2.30;99.90
23681;DHT22;62915;50.832;4.462;2022-12-18T17:01:40;2.20;99.90
23681;DHT22;62915;50.832;4.462;2022-12-18T17:04:06;2.40;99.90
23681;DHT22;62915;50.832;4.462;2022-12-18T17:06:44;2.30;99.90
23681;DHT22;62915;50.832;4.462;2022-12-18T17:09:14;2.30;99.90
23681;DHT22;62915;50.832;4.462;2022-12-18T17:11:43;2.40;99.90
23681;DHT22;62915;50.832;4.462;2022-12-18T17:14:14;2.30;99.90
23681;DHT22;62915;50.832;4.462;2022-12-18T17:16:41;2.40;99.90
23681;DHT22;62915;50.832;4.462;2022-12-18T17:19:06;2.50;99.90
23681;DHT22;62915;50.832;4.462;2022-12-18T17:21:32;2.50;99.90
23681;DHT22;62915;50.832;4.462;2022-12-18T17:24:01;2.50;99.90
23681;DHT22;62915;50.832;4.462;2022-12-18T17:26:27;2.60;99.90
23681;DHT22;62915;50.832;4.462;2022-12-18T17:28:55;2.60;99.90
23681;DHT22;62915;50.832;4.462;2022-12-18T17:31:23;2.60;99.90
23681;DHT22;62915;50.832;4.462;2022-12-18T17:33:49;2.40;99.90
23681;DHT22;62915;50.832;4.462;2022-12-18T17:36:16;2.30;99.90
23681;DHT22;62915;50.832;4.462;2022-12-18T17:38:41;2.30;99.90
23681;DHT22;62915;50.832;4.462;2022-12-18T17:41:10;2.30;99.90
23681;DHT22;62915;50.832;4.462;2022-12-18T17:43:36;2.40;99.90
23681;DHT22;62915;50.832;4.462;2022-12-18T17:46:12;2.40;99.90
23681;DHT22;62915;50.832;4.462;2022-12-18T17:48:38;2.30;99.90
23681;DHT22;62915;50.832;4.462;2022-12-18T17:51:07;2.40;99.90
23681;DHT22;62915;50.832;4.462;2022-12-18T17:53:34;2.40;99.90
23681;DHT22;62915;50.832;4.462;2022-12-18T17:56:00;2.20;99.90
23681;DHT22;62915;50.832;4.462;2022-12-18T17:58:29;2.30;99.90
23681;DHT22;62915;50.832;4.462;2022-12-18T18:00:55;2.40;99.90
23681;DHT22;62915;50.832;4.462;2022-12-18T18:03:20;2.40;99.90
23681;DHT22;62915;50.832;4.462;2022-12-18T18:05:46;2.30;99.90
23681;DHT22;62915;50.832;4.462;2022-12-18T18:08:12;2.20;99.90
23681;DHT22;62915;50.832;4.462;2022-12-18T18:10:38;2.10;99.90